Time;durP1;ratioP1;P1;durP2;ratioP2;P2;SDS_P1;SDS_P2;PMS_P1;PMS_P2;Temp;Humidity;BMP_temperature;BMP_pressure;BME280_temperature;BME280_humidity;BME280_pressure;Samples;Min_cycle;Max_cycle;Signal;HPM_P1;HPM_P2
2022/05/12 00:00:25;;;;;;;1.80;0.80;;;25.60;44.80;;;;;;5027245;28;90832;-67
2022/05/12 00:02:53;;;;;;;2.80;0.80;;;25.60;44.80;;;;;;5022689;28;88682;-67
2022/05/12 00:05:22;;;;;;;1.53;0.57;;;25.60;44.80;;;;;;5035357;28;89828;-68
2022/05/12 00:07:50;;;;;;;0.83;0.77;;;25.60;44.80;;;;;;5026811;28;90232;-67
2022/05/12 00:10:21;;;;;;;0.53;0.50;;;25.60;44.80;;;;;;5022303;28;89018;-67
2022/05/12 00:12:49;;;;;;;0.60;0.60;;;25.60;44.70;;;;;;5036050;28;88500;-67
2022/05/12 00:15:19;;;;;;;4.27;0.90;;;25.60;44.70;;;;;;5036846;27;89357;-68
2022/05/12 00:17:47;;;;;;;1.30;0.60;;;25.50;44.70;;;;;;5036695;27;89184;-67
2022/05/12 00:20:16;;;;;;;2.27;0.80;;;25.60;44.70;;;;;;5028837;28;88929;-67
2022/05/12 00:22:44;;;;;;;0.70;0.60;;;25.50;44.70;;;;;;5040368;27;88695;-67
2022/05/12 00:25:13;;;;;;;2.87;0.73;;;25.50;44.60;;;;;;5036209;27;90527;-67
2022/05/12 00:27:42;;;;;;;2.60;1.83;;;25.50;44.60;;;;;;5040101;27;89176;-67
2022/05/12 00:30:12;;;;;;;0.53;0.47;;;25.50;44.60;;;;;;5030339;28;89339;-67
2022/05/12 00:32:40;;;;;;;3.43;1.00;;;25.50;44.60;;;;;;5026936;28;88459;-67
2022/05/12 00:35:09;;;;;;;1.10;0.53;;;25.50;44.60;;;;;;5022145;28;90221;-68
2022/05/12 00:37:38;;;;;;;1.47;0.53;;;25.50;44.60;;;;;;5020597;28;89022;-68
2022/05/12 00:40:07;;;;;;;0.70;0.60;;;25.50;44.60;;;;;;5029283;28;89037;-67
2022/05/12 00:42:36;;;;;;;0.60;0.57;;;25.50;44.60;;;;;;5037847;28;88405;-68
2022/05/12 00:45:06;;;;;;;1.13;0.80;;;25.50;44.60;;;;;;5024590;27;89332;-67
2022/05/12 00:47:35;;;;;;;1.23;0.60;;;25.50;44.50;;;;;;5032099;27;91710;-67
2022/05/12 00:50:03;;;;;;;1.60;0.70;;;25.50;44.50;;;;;;5028849;28;93510;-67
2022/05/12 00:52:33;;;;;;;0.80;0.60;;;25.50;44.50;;;;;;5034870;28;88303;-68
2022/05/12 00:55:01;;;;;;;1.37;0.70;;;25.50;44.50;;;;;;5022842;28;90747;-67
2022/05/12 00:57:31;;;;;;;4.17;0.50;;;25.50;44.50;;;;;;5030792;28;89000;-67
2022/05/12 00:59:59;;;;;;;1.07;0.80;;;25.40;44.40;;;;;;5039258;27;90295;-68
2022/05/12 01:02:29;;;;;;;0.60;0.30;;;25.40;44.40;;;;;;5038598;28;88790;-67
2022/05/12 01:04:59;;;;;;;1.37;0.50;;;25.40;44.40;;;;;;5034964;27;92545;-67
2022/05/12 01:07:27;;;;;;;0.50;0.50;;;25.40;44.40;;;;;;5035047;27;90266;-68
2022/05/12 01:09:55;;;;;;;0.77;0.63;;;25.40;44.40;;;;;;5024234;28;88433;-67
2022/05/12 01:12:24;;;;;;;1.07;0.43;;;25.40;44.40;;;;;;5038020;28;88519;-67
2022/05/12 01:14:52;;;;;;;0.73;0.60;;;25.40;44.40;;;;;;5035136;28;90416;-68
2022/05/12 01:17:20;;;;;;;0.50;0.50;;;25.40;44.40;;;;;;5037140;28;90314;-68
2022/05/12 01:19:51;;;;;;;1.23;0.57;;;25.40;44.40;;;;;;5024991;28;90053;-68
2022/05/12 01:22:31;;;;;;;1.40;0.70;;;25.40;44.40;;;;;;5020401;28;88475;-67
2022/05/12 01:25:08;;;;;;;1.73;0.70;;;25.40;44.30;;;;;;5029364;28;90719;-68
2022/05/12 01:27:37;;;;;;;1.23;0.60;;;25.40;44.30;;;;;;5037536;27;90079;-67
2022/05/12 01:30:07;;;;;;;0.40;0.40;;;25.40;44.30;;;;;;5032620;28;88263;-67
2022/05/12 01:32:35;;;;;;;0.40;0.40;;;25.40;44.30;;;;;;5035656;27;88622;-67
2022/05/12 01:35:04;;;;;;;1.60;0.53;;;25.40;44.30;;;;;;5022150;28;89953;-67
2022/05/12 01:37:33;;;;;;;0.63;0.43;;;25.30;44.20;;;;;;5030793;28;88856;-67
2022/05/12 01:40:01;;;;;;;0.60;0.50;;;25.30;44.20;;;;;;5026645;28;91788;-68
2022/05/12 01:42:30;;;;;;;0.40;0.40;;;25.30;44.20;;;;;;5019022;28;88657;-68
2022/05/12 01:44:59;;;;;;;0.60;0.57;;;25.30;44.20;;;;;;5021136;28;93182;-67
2022/05/12 01:47:27;;;;;;;0.60;0.27;;;25.30;44.10;;;;;;5023178;28;91986;-67
2022/05/12 01:49:55;;;;;;;0.20;0.20;;;25.30;44.10;;;;;;5037686;27;88527;-67
2022/05/12 01:52:23;;;;;;;1.03;0.60;;;25.30;44.20;;;;;;5034679;28;88604;-67
2022/05/12 01:54:54;;;;;;;0.50;0.50;;;25.20;44.10;;;;;;5035705;27;88968;-67
2022/05/12 01:57:23;;;;;;;0.63;0.60;;;25.20;44.10;;;;;;5022820;27;90007;-67
2022/05/12 01:59:52;;;;;;;1.13;0.40;;;25.20;44.10;;;;;;5037070;28;88938;-67
2022/05/12 02:02:20;;;;;;;0.93;0.40;;;25.20;44.10;;;;;;5030626;27;88308;-67
2022/05/12 02:04:48;;;;;;;0.53;0.47;;;25.20;44.10;;;;;;5027559;27;93525;-68
2022/05/12 02:07:18;;;;;;;0.80;0.43;;;25.20;44.10;;;;;;5036451;27;92042;-67
2022/05/12 02:09:46;;;;;;;1.17;0.60;;;25.20;44.10;;;;;;5024856;28;88814;-68
2022/05/12 02:12:14;;;;;;;1.47;0.77;;;25.20;44.10;;;;;;5037875;27;88496;-67
2022/05/12 02:14:42;;;;;;;0.30;0.30;;;25.20;44.10;;;;;;5033436;28;90586;-67
2022/05/12 02:17:12;;;;;;;4.77;0.60;;;25.20;44.10;;;;;;5036592;28;90154;-68
2022/05/12 02:19:40;;;;;;;0.77;0.40;;;25.20;44.10;;;;;;5033068;27;90221;-67
2022/05/12 02:22:10;;;;;;;0.70;0.40;;;25.20;44.00;;;;;;5034707;28;88603;-67
2022/05/12 02:24:38;;;;;;;3.10;0.50;;;25.20;44.10;;;;;;5033561;27;90685;-68
2022/05/12 02:27:06;;;;;;;0.40;0.40;;;25.20;44.10;;;;;;5021913;28;89202;-68
2022/05/12 02:29:34;;;;;;;0.30;0.30;;;25.20;44.00;;;;;;5040084;28;90213;-68
2022/05/12 02:32:02;;;;;;;2.03;1.13;;;25.20;44.00;;;;;;5035284;28;88583;-68
2022/05/12 02:34:32;;;;;;;0.93;0.50;;;25.20;44.10;;;;;;5022842;28;92052;-67
2022/05/12 02:37:03;;;;;;;1.00;0.60;;;25.20;44.80;;;;;;5026249;28;89852;-68
2022/05/12 02:39:35;;;;;;;0.20;0.20;;;25.20;44.10;;;;;;5026001;28;88506;-67
2022/05/12 02:42:04;;;;;;;1.83;0.50;;;25.20;44.10;;;;;;5038690;28;88699;-67
2022/05/12 02:44:32;;;;;;;1.70;0.50;;;25.20;44.10;;;;;;5027232;28;90711;-67
2022/05/12 02:47:00;;;;;;;0.70;0.50;;;25.20;44.10;;;;;;5041349;28;92136;-67
2022/05/12 02:49:28;;;;;;;2.93;0.67;;;25.10;44.10;;;;;;5028984;28;88274;-67
2022/05/12 02:51:57;;;;;;;0.50;0.50;;;25.10;44.10;;;;;;5029269;28;88654;-68
2022/05/12 02:54:25;;;;;;;0.40;0.40;;;25.10;44.10;;;;;;5025905;28;90675;-67
2022/05/12 02:56:55;;;;;;;1.10;0.70;;;25.10;44.10;;;;;;5022226;27;88615;-67
2022/05/12 02:59:23;;;;;;;1.90;0.80;;;25.10;44.10;;;;;;5026352;27;88470;-68
2022/05/12 03:01:51;;;;;;;1.40;0.67;;;25.10;44.10;;;;;;5034359;28;88519;-67
2022/05/12 03:04:20;;;;;;;2.03;0.77;;;25.10;44.10;;;;;;5031596;28;92063;-68
2022/05/12 03:06:48;;;;;;;0.73;0.60;;;25.10;44.10;;;;;;5038703;27;90189;-67
2022/05/12 03:09:17;;;;;;;1.00;0.90;;;25.10;44.10;;;;;;5036487;28;88751;-67
2022/05/12 03:11:45;;;;;;;1.33;1.00;;;25.10;44.10;;;;;;5038396;28;88467;-67
2022/05/12 03:14:13;;;;;;;3.07;0.90;;;25.00;44.10;;;;;;5039720;28;89912;-68
2022/05/12 03:16:42;;;;;;;1.43;0.70;;;25.10;44.80;;;;;;5041687;28;89499;-67
2022/05/12 03:19:10;;;;;;;2.87;0.90;;;25.10;44.10;;;;;;5035634;27;89814;-67
2022/05/12 03:21:38;;;;;;;1.17;1.00;;;25.00;44.00;;;;;;5031042;28;88768;-67
2022/05/12 03:24:07;;;;;;;1.10;1.00;;;25.00;44.00;;;;;;5039593;27;90747;-68
2022/05/12 03:26:36;;;;;;;2.37;1.37;;;25.00;44.00;;;;;;5040075;27;91131;-67
2022/05/12 03:29:04;;;;;;;2.20;1.47;;;25.00;44.00;;;;;;5038636;27;90884;-67
2022/05/12 03:31:32;;;;;;;4.43;1.90;;;25.00;44.00;;;;;;5037493;28;88636;-67
2022/05/12 03:34:01;;;;;;;2.50;1.70;;;25.00;44.00;;;;;;5039316;28;91823;-67
2022/05/12 03:36:31;;;;;;;3.90;2.67;;;25.00;44.00;;;;;;5037738;27;90121;-67
2022/05/12 03:39:00;;;;;;;8.23;4.67;;;25.00;44.00;;;;;;5037624;27;88775;-67
2022/05/12 03:41:28;;;;;;;5.87;3.43;;;25.00;44.00;;;;;;5038914;27;89461;-67
2022/05/12 03:46:43;;;;;;;6.40;3.77;;;25.00;44.00;;;;;;5039003;27;89999;-67
2022/05/12 03:49:11;;;;;;;10.03;5.63;;;25.00;44.00;;;;;;5037523;27;88533;-68
2022/05/12 03:51:39;;;;;;;12.70;6.77;;;25.00;44.70;;;;;;5038854;28;88460;-68
2022/05/12 03:54:07;;;;;;;13.23;7.43;;;25.00;44.00;;;;;;5039507;27;88844;-68
2022/05/12 03:56:36;;;;;;;11.93;7.10;;;24.90;43.90;;;;;;5037605;28;89349;-68
2022/05/12 03:59:06;;;;;;;11.80;7.57;;;24.90;43.90;;;;;;5038965;27;88612;-68
2022/05/12 04:01:34;;;;;;;14.33;6.90;;;24.90;43.90;;;;;;5039529;27;88567;-68
2022/05/12 04:04:02;;;;;;;15.33;7.43;;;25.00;44.00;;;;;;5038828;28;90093;-68
2022/05/12 04:06:30;;;;;;;14.03;7.70;;;24.90;44.60;;;;;;5024034;27;88780;-68
2022/05/12 04:08:58;;;;;;;15.60;7.83;;;24.90;43.90;;;;;;5028669;28;90246;-68
2022/05/12 04:11:26;;;;;;;15.07;7.97;;;24.90;43.90;;;;;;5023311;28;88453;-69
2022/05/12 04:13:54;;;;;;;13.67;7.97;;;24.90;43.90;;;;;;5041259;27;90236;-68
2022/05/12 04:16:24;;;;;;;13.30;7.73;;;24.90;43.80;;;;;;5037130;27;89189;-68
2022/05/12 04:18:52;;;;;;;15.43;7.70;;;24.90;43.80;;;;;;5040603;28;89079;-68
2022/05/12 04:21:20;;;;;;;21.00;8.60;;;24.90;43.80;;;;;;5041633;27;88458;-68
2022/05/12 04:23:50;;;;;;;12.37;7.63;;;24.90;43.80;;;;;;5038234;27;89011;-67
2022/05/12 04:26:18;;;;;;;16.07;7.97;;;24.90;43.80;;;;;;5040657;27;89178;-67
2022/05/12 04:28:46;;;;;;;20.70;9.63;;;24.90;43.70;;;;;;5041790;28;88332;-67
2022/05/12 04:31:14;;;;;;;13.53;8.03;;;24.90;43.70;;;;;;5040965;27;88453;-68
2022/05/12 04:36:29;;;;;;;19.23;9.77;;;25.00;43.80;;;;;;5020937;28;89110;-68
2022/05/12 04:38:59;;;;;;;19.67;9.80;;;25.30;43.50;;;;;;5022446;27;88425;-67
2022/05/12 04:41:28;;;;;;;21.53;10.97;;;25.50;43.30;;;;;;5039732;28;88591;-67
2022/05/12 04:43:56;;;;;;;22.77;11.60;;;25.60;43.10;;;;;;5040180;27;90299;-67
2022/05/12 04:46:24;;;;;;;24.37;13.37;;;25.60;43.00;;;;;;5039935;27;89117;-67
2022/05/12 04:48:54;;;;;;;21.73;11.63;;;25.60;42.90;;;;;;5022814;27;88914;-67
2022/05/12 04:51:22;;;;;;;28.30;13.30;;;25.70;42.90;;;;;;5020193;28;88324;-67
2022/05/12 04:53:50;;;;;;;26.10;13.37;;;25.70;42.90;;;;;;5034506;28;89702;-67
2022/05/12 04:56:18;;;;;;;28.93;14.20;;;25.70;42.80;;;;;;5039489;27;89865;-68
2022/05/12 04:58:46;;;;;;;23.13;13.67;;;25.70;42.80;;;;;;5023160;28;88771;-67
2022/05/12 05:01:14;;;;;;;26.97;13.47;;;25.80;42.80;;;;;;5019711;28;88588;-67
2022/05/12 05:03:42;;;;;;;26.23;13.37;;;25.80;42.70;;;;;;5019503;28;90363;-68
2022/05/12 05:06:12;;;;;;;31.17;14.80;;;25.80;42.60;;;;;;5031968;28;91317;-68
2022/05/12 05:08:40;;;;;;;30.10;13.93;;;25.80;42.60;;;;;;5027823;28;89271;-68
2022/05/12 05:11:08;;;;;;;22.07;11.60;;;25.80;42.50;;;;;;5019635;28;88601;-67
2022/05/12 05:13:36;;;;;;;25.97;13.03;;;25.80;42.60;;;;;;5019708;28;88717;-67
2022/05/12 05:16:05;;;;;;;26.20;12.77;;;25.80;42.50;;;;;;5020491;28;88317;-67
2022/05/12 05:18:36;;;;;;;25.13;12.93;;;25.80;42.50;;;;;;5019753;28;89262;-67
2022/05/12 05:21:04;;;;;;;23.00;10.60;;;25.80;42.50;;;;;;5019721;28;88434;-67
2022/05/12 05:23:34;;;;;;;22.30;12.60;;;25.80;42.50;;;;;;5028167;27;88368;-67
2022/05/12 05:26:02;;;;;;;19.90;11.07;;;25.80;42.50;;;;;;5038719;28;92273;-68
2022/05/12 05:28:30;;;;;;;20.67;10.90;;;25.80;42.50;;;;;;5038514;27;88247;-67
2022/05/12 05:30:58;;;;;;;23.03;10.30;;;25.80;42.50;;;;;;5035631;28;88401;-68
2022/05/12 05:33:26;;;;;;;27.13;10.53;;;25.80;42.50;;;;;;5023251;28;93496;-68
2022/05/12 05:35:54;;;;;;;17.03;9.30;;;25.80;42.50;;;;;;5019976;28;89579;-68
2022/05/12 05:38:22;;;;;;;20.43;10.27;;;25.80;42.40;;;;;;5034691;27;89222;-67
2022/05/12 05:40:52;;;;;;;15.13;8.43;;;25.80;42.40;;;;;;5020471;28;88495;-68
2022/05/12 05:43:20;;;;;;;14.17;8.40;;;25.80;42.30;;;;;;5026701;28;90811;-68
2022/05/12 05:45:48;;;;;;;14.37;8.07;;;25.80;42.40;;;;;;5024107;28;89437;-67
2022/05/12 05:48:16;;;;;;;15.77;8.60;;;25.80;42.30;;;;;;5044361;27;90170;-67
2022/05/12 05:53:33;;;;;;;15.20;8.13;;;25.80;42.20;;;;;;5045223;27;90610;-68
2022/05/12 05:56:03;;;;;;;14.57;8.23;;;25.80;42.20;;;;;;5038122;28;90049;-67
2022/05/12 05:58:32;;;;;;;13.60;7.13;;;25.80;42.20;;;;;;5038133;27;88402;-68
2022/05/12 06:00:59;;;;;;;15.33;6.93;;;25.80;42.20;;;;;;5034824;28;88564;-68
2022/05/12 06:03:28;;;;;;;9.40;5.80;;;25.80;42.20;;;;;;5039876;27;90937;-67
2022/05/12 06:05:57;;;;;;;10.80;6.07;;;25.80;42.20;;;;;;5039605;27;89698;-68
2022/05/12 06:08:25;;;;;;;10.33;5.67;;;25.80;42.20;;;;;;5027656;28;88387;-68
2022/05/12 06:10:59;;;;;;;12.57;5.40;;;25.80;42.80;;;;;;5035465;27;88524;-68
2022/05/12 06:13:28;;;;;;;9.33;5.17;;;25.80;42.10;;;;;;5047575;27;90971;-73
2022/05/12 06:15:56;;;;;;;10.70;5.17;;;25.80;42.10;;;;;;5036068;28;89968;-75
2022/05/12 06:18:24;;;;;;;7.80;4.40;;;25.80;42.10;;;;;;5038737;27;89495;-74
2022/05/12 06:20:53;;;;;;;6.30;3.87;;;25.80;42.20;;;;;;5054759;27;88588;-73
2022/05/12 06:23:21;;;;;;;6.97;4.00;;;25.90;42.30;;;;;;5050571;27;89662;-74
2022/05/12 06:25:50;;;;;;;9.83;4.37;;;25.90;42.40;;;;;;5032367;27;88961;-73
2022/05/12 06:28:18;;;;;;;6.60;3.77;;;25.90;42.70;;;;;;5037752;27;88363;-74
2022/05/12 06:30:47;;;;;;;8.00;4.70;;;25.90;42.80;;;;;;5051203;27;88647;-74
2022/05/12 06:33:17;;;;;;;4.67;2.40;;;25.90;43.00;;;;;;5038274;27;89609;-73
2022/05/12 06:35:47;;;;;;;3.97;2.40;;;25.90;43.00;;;;;;5045932;27;89156;-73
2022/05/12 06:38:15;;;;;;;4.40;2.57;;;25.90;42.90;;;;;;5025044;27;89236;-74
2022/05/12 06:40:43;;;;;;;4.33;2.20;;;25.90;42.90;;;;;;5036803;28;88592;-74
2022/05/12 06:43:11;;;;;;;5.53;2.70;;;25.90;42.90;;;;;;5028268;28;89578;-74
2022/05/12 06:45:40;;;;;;;5.07;2.70;;;25.90;42.90;;;;;;5036467;28;88806;-74
2022/05/12 06:48:10;;;;;;;4.93;2.27;;;25.80;42.80;;;;;;5037635;27;88647;-73
2022/05/12 06:50:38;;;;;;;3.43;1.90;;;25.90;43.00;;;;;;5039059;27;88477;-74
2022/05/12 06:53:06;;;;;;;3.70;2.10;;;25.80;42.90;;;;;;5043725;27;89572;-73
2022/05/12 06:55:34;;;;;;;3.97;2.13;;;25.90;43.10;;;;;;5017957;28;89394;-73
2022/05/12 06:58:02;;;;;;;3.00;2.03;;;25.90;43.10;;;;;;5018913;28;88586;-73
2022/05/12 07:00:31;;;;;;;3.37;2.10;;;25.90;43.10;;;;;;5044860;27;88715;-73
2022/05/12 07:02:59;;;;;;;3.80;2.17;;;25.90;43.10;;;;;;5041551;27;89794;-73
2022/05/12 07:05:34;;;;;;;3.80;1.63;;;25.90;43.10;;;;;;5042703;27;89466;-73
2022/05/12 07:08:02;;;;;;;5.93;1.70;;;25.90;43.10;;;;;;5059910;27;91536;-73
2022/05/12 07:10:30;;;;;;;3.00;1.60;;;25.80;43.00;;;;;;5056681;27;88406;-73
2022/05/12 07:12:58;;;;;;;3.43;1.43;;;25.80;43.60;;;;;;5054878;27;90602;-73
2022/05/12 07:15:28;;;;;;;3.43;1.70;;;25.80;43.00;;;;;;5059682;27;88822;-73
2022/05/12 07:17:56;;;;;;;1.40;1.03;;;25.80;42.90;;;;;;5051829;27;88794;-73
2022/05/12 07:28:43;;;;;;;5.60;1.40;;;25.80;42.70;;;;;;5001261;28;88512;-71
2022/05/12 07:31:11;;;;;;;5.17;1.50;;;25.80;42.70;;;;;;5028453;28;89677;-73
2022/05/12 07:33:41;;;;;;;3.00;0.90;;;25.80;42.80;;;;;;5028670;28;89535;-72
2022/05/12 07:36:11;;;;;;;4.97;0.93;;;25.80;42.80;;;;;;5029026;28;88849;-72
2022/05/12 07:38:43;;;;;;;1.67;1.30;;;25.80;42.80;;;;;;5032298;27;88877;-72
2022/05/12 07:41:12;;;;;;;1.30;0.80;;;25.80;42.70;;;;;;5028162;28;88679;-72
2022/05/12 07:43:40;;;;;;;2.40;1.33;;;25.80;42.60;;;;;;5032763;27;90013;-72
2022/05/12 07:46:08;;;;;;;1.87;1.03;;;25.80;42.50;;;;;;5031493;27;92617;-72
2022/05/12 07:48:37;;;;;;;3.40;1.37;;;25.80;42.40;;;;;;5031268;27;88873;-72
2022/05/12 07:51:05;;;;;;;3.70;1.40;;;25.80;42.40;;;;;;5031865;27;89901;-72
2022/05/12 07:53:32;;;;;;;1.80;1.13;;;25.80;42.30;;;;;;5025681;27;89860;-72
2022/05/12 07:56:03;;;;;;;3.50;1.07;;;25.80;42.30;;;;;;5029128;27;90058;-72
2022/05/12 07:58:32;;;;;;;4.03;1.27;;;25.80;42.30;;;;;;5027330;27;89873;-72
2022/05/12 08:01:01;;;;;;;1.63;1.00;;;25.80;42.20;;;;;;5028219;28;88729;-72
2022/05/12 08:03:29;;;;;;;0.97;0.67;;;25.80;42.30;;;;;;5037215;27;89491;-73
2022/05/12 08:05:58;;;;;;;4.80;1.30;;;25.80;42.30;;;;;;5029398;28;92332;-73
2022/05/12 08:08:26;;;;;;;1.47;0.97;;;25.80;42.40;;;;;;5021005;28;90359;-73
2022/05/12 08:10:54;;;;;;;2.67;1.47;;;25.80;42.30;;;;;;5027695;28;88667;-73
2022/05/12 08:13:25;;;;;;;1.83;0.80;;;25.80;42.40;;;;;;5040695;27;93833;-72
2022/05/12 08:15:53;;;;;;;2.77;0.93;;;25.80;42.30;;;;;;5047512;27;89100;-73
2022/05/12 08:18:22;;;;;;;3.27;1.10;;;25.80;42.20;;;;;;5022180;27;88467;-72
2022/05/12 08:20:50;;;;;;;3.50;0.97;;;25.80;42.10;;;;;;5046688;27;88362;-73
2022/05/12 08:23:18;;;;;;;1.83;0.93;;;25.70;42.00;;;;;;5060337;27;89563;-73
2022/05/12 08:25:47;;;;;;;3.17;0.70;;;25.70;42.00;;;;;;5060476;27;89050;-73
2022/05/12 08:28:15;;;;;;;3.27;0.80;;;25.70;41.90;;;;;;5042790;27;88677;-73
2022/05/12 08:30:44;;;;;;;2.97;0.80;;;25.70;41.90;;;;;;5061176;27;88485;-72
2022/05/12 08:33:13;;;;;;;5.17;1.07;;;25.70;41.80;;;;;;5055941;27;90592;-73
2022/05/12 08:35:44;;;;;;;1.37;1.07;;;25.70;41.70;;;;;;5020741;28;90057;-73
2022/05/12 08:38:12;;;;;;;3.07;0.80;;;25.70;41.60;;;;;;5020345;28;88985;-73
2022/05/12 08:40:45;;;;;;;1.93;0.60;;;25.70;41.50;;;;;;5020585;28;88523;-73
2022/05/12 08:43:15;;;;;;;1.83;0.80;;;25.70;41.40;;;;;;5027337;27;89517;-73
2022/05/12 08:45:44;;;;;;;0.90;0.83;;;25.60;41.20;;;;;;5040886;27;89336;-73
2022/05/12 08:48:14;;;;;;;1.37;0.70;;;25.60;41.10;;;;;;5023278;27;88387;-72
2022/05/12 08:50:42;;;;;;;1.67;0.40;;;25.60;41.10;;;;;;5040309;27;88414;-73
2022/05/12 08:53:13;;;;;;;0.50;0.50;;;25.60;41.00;;;;;;5042197;27;89359;-72
2022/05/12 08:55:44;;;;;;;2.93;0.70;;;25.60;40.90;;;;;;5052580;27;90090;-73
2022/05/12 08:58:17;;;;;;;1.30;0.50;;;25.60;40.80;;;;;;5040299;28;88802;-74
2022/05/12 09:00:53;;;;;;;1.50;0.80;;;25.50;40.70;;;;;;5040889;27;88586;-73
2022/05/12 09:03:25;;;;;;;0.40;0.40;;;25.60;40.70;;;;;;5039813;27;89558;-72
2022/05/12 09:05:57;;;;;;;2.33;0.70;;;25.60;40.70;;;;;;5020106;28;90173;-73
2022/05/12 09:08:29;;;;;;;1.33;1.00;;;25.50;40.60;;;;;;5032549;28;90037;-73
2022/05/12 09:10:59;;;;;;;2.40;0.77;;;25.50;40.50;;;;;;5039200;27;88604;-73
2022/05/12 09:13:31;;;;;;;4.37;0.60;;;25.50;40.50;;;;;;5039224;27;89700;-73
2022/05/12 09:16:06;;;;;;;0.63;0.60;;;25.50;40.50;;;;;;5039951;28;89591;-73
2022/05/12 09:18:34;;;;;;;1.57;0.70;;;25.50;40.60;;;;;;5046483;27;89520;-73
2022/05/12 09:21:03;;;;;;;1.17;0.60;;;25.50;40.60;;;;;;5034331;27;88437;-73
2022/05/12 09:23:31;;;;;;;2.00;0.80;;;25.50;40.80;;;;;;5019794;27;89456;-73
2022/05/12 09:25:59;;;;;;;2.00;0.70;;;25.60;40.90;;;;;;5020038;28;88977;-72
2022/05/12 09:28:29;;;;;;;0.70;0.70;;;25.60;41.00;;;;;;5038506;27;91754;-73
2022/05/12 09:31:02;;;;;;;2.73;1.00;;;25.60;41.00;;;;;;5040084;27;88512;-73
2022/05/12 09:33:33;;;;;;;1.90;0.67;;;25.60;41.00;;;;;;5036980;27;89957;-72
2022/05/12 09:36:02;;;;;;;1.57;0.73;;;25.70;41.10;;;;;;5037551;27;92428;-73
2022/05/12 09:38:31;;;;;;;0.63;0.50;;;25.40;41.00;;;;;;5037022;28;88562;-72
2022/05/12 09:40:59;;;;;;;0.20;0.20;;;25.70;41.10;;;;;;5049842;27;89646;-72
2022/05/12 09:43:29;;;;;;;1.20;0.70;;;25.70;41.10;;;;;;5039004;27;90829;-73
2022/05/12 09:46:07;;;;;;;1.40;0.53;;;25.70;41.00;;;;;;5039774;27;90114;-72
2022/05/12 09:48:36;;;;;;;1.03;0.50;;;25.70;41.10;;;;;;5039276;27;88894;-73
2022/05/12 09:51:29;;;;;;;1.37;0.77;;;25.70;41.00;;;;;;5039049;27;88533;-72
2022/05/12 09:54:16;;;;;;;1.03;0.57;;;25.70;41.00;;;;;;5057276;27;90022;-73
2022/05/12 09:56:46;;;;;;;2.83;0.57;;;25.70;41.00;;;;;;5036582;27;88877;-73
2022/05/12 09:59:21;;;;;;;7.73;0.60;;;25.70;40.90;;;;;;5034578;27;88730;-72
2022/05/12 10:01:55;;;;;;;2.50;0.40;;;25.70;40.90;;;;;;5033632;28;88599;-73
2022/05/12 10:10:06;;;;;;;1.00;0.60;;;25.80;41.00;;;;;;5051049;27;88522;-72
2022/05/12 10:12:36;;;;;;;2.20;0.67;;;25.80;41.00;;;;;;5039026;27;88678;-73
2022/05/12 10:15:08;;;;;;;1.00;0.60;;;25.80;41.00;;;;;;5052978;27;90949;-72
2022/05/12 10:17:40;;;;;;;2.77;0.50;;;25.80;40.90;;;;;;5037835;27;88970;-73
2022/05/12 10:20:10;;;;;;;1.60;0.63;;;25.80;40.90;;;;;;5039255;28;89171;-72
2022/05/12 10:22:40;;;;;;;1.50;0.77;;;25.80;40.80;;;;;;5038621;27;88611;-72
2022/05/12 10:25:17;;;;;;;0.40;0.40;;;25.80;40.80;;;;;;5032304;28;90642;-71
2022/05/12 10:27:50;;;;;;;1.03;0.50;;;25.80;40.80;;;;;;5035701;27;91867;-72
2022/05/12 10:30:27;;;;;;;0.93;0.60;;;25.80;40.70;;;;;;5036543;27;89128;-72
2022/05/12 10:33:06;;;;;;;0.63;0.60;;;25.80;40.70;;;;;;5019297;28;88714;-72
2022/05/12 10:35:36;;;;;;;0.53;0.53;;;25.80;40.70;;;;;;5028247;28;90679;-72
2022/05/12 10:38:06;;;;;;;1.87;0.67;;;25.80;40.60;;;;;;5023753;28;91647;-72
2022/05/12 10:40:38;;;;;;;0.60;0.50;;;25.80;40.50;;;;;;5039393;27;88849;-72
2022/05/12 10:43:21;;;;;;;2.67;0.70;;;25.80;40.40;;;;;;5027125;28;88489;-72
2022/05/12 10:45:53;;;;;;;5.73;0.80;;;25.80;40.40;;;;;;5033084;28;90640;-71
2022/05/12 10:48:31;;;;;;;1.07;0.70;;;25.80;40.40;;;;;;5039640;27;89330;-73
2022/05/12 10:51:01;;;;;;;1.03;0.70;;;25.80;40.50;;;;;;5040625;27;88390;-73
2022/05/12 10:53:44;;;;;;;0.83;0.60;;;25.80;40.50;;;;;;5039852;27;88620;-72
2022/05/12 10:56:25;;;;;;;3.77;0.83;;;25.80;40.70;;;;;;5034161;28;90176;-72
2022/05/12 10:58:57;;;;;;;0.80;0.70;;;25.90;40.80;;;;;;5043325;27;89618;-72
2022/05/12 11:01:27;;;;;;;6.63;0.90;;;26.00;41.00;;;;;;5040340;27;88465;-72
2022/05/12 11:03:59;;;;;;;3.53;1.00;;;26.10;41.30;;;;;;5022411;27;88256;-73
2022/05/12 11:06:29;;;;;;;2.53;0.97;;;26.10;41.70;;;;;;5057587;27;90077;-74
2022/05/12 11:09:00;;;;;;;1.70;1.30;;;26.20;41.90;;;;;;5061635;27;88374;-73
2022/05/12 11:11:29;;;;;;;1.13;0.73;;;26.20;42.00;;;;;;5028482;28;88853;-74
2022/05/12 11:14:01;;;;;;;2.97;0.67;;;26.30;42.20;;;;;;5037171;27;88421;-73
2022/05/12 11:16:31;;;;;;;0.93;0.63;;;26.30;42.10;;;;;;5036200;28;90649;-73
2022/05/12 11:19:05;;;;;;;1.77;0.87;;;26.30;42.00;;;;;;5039103;27;90512;-73
2022/05/12 11:21:33;;;;;;;2.60;0.90;;;26.30;42.00;;;;;;5041277;27;89850;-73
2022/05/12 11:24:10;;;;;;;0.87;0.80;;;26.30;42.00;;;;;;5036980;28;88637;-73
2022/05/12 11:26:55;;;;;;;0.40;0.40;;;26.30;41.90;;;;;;5038969;27;89718;-73
2022/05/12 11:29:44;;;;;;;3.77;0.90;;;26.30;41.80;;;;;;5039578;27;89507;-73
2022/05/12 11:32:42;;;;;;;1.67;0.67;;;26.30;41.60;;;;;;5028536;28;90350;-73
2022/05/12 11:35:13;;;;;;;0.70;0.70;;;26.30;41.50;;;;;;5020194;28;88749;-73
2022/05/12 11:37:57;;;;;;;1.03;0.80;;;26.30;41.50;;;;;;5039341;27;90180;-73
2022/05/12 11:40:49;;;;;;;2.87;0.53;;;26.30;41.50;;;;;;5041322;27;90054;-73
2022/05/12 11:46:30;;;;;;;16.30;8.57;;;26.30;41.50;;;;;;5034283;27;88586;-73
2022/05/12 11:48:59;;;;;;;24.00;14.63;;;26.40;41.60;;;;;;5040829;27;89566;-73
2022/05/12 11:51:35;;;;;;;16.20;10.77;;;26.40;41.60;;;;;;5055938;27;89031;-74
2022/05/12 11:54:05;;;;;;;14.60;8.07;;;26.50;42.30;;;;;;5058610;27;88573;-73
2022/05/12 11:56:46;;;;;;;14.20;8.33;;;26.50;41.60;;;;;;5051696;27;89554;-73
2022/05/12 11:59:20;;;;;;;8.53;6.10;;;26.40;41.50;;;;;;5042050;28;89858;-73
2022/05/12 12:01:50;;;;;;;12.50;6.00;;;26.50;41.40;;;;;;5041265;27;90390;-73
2022/05/12 12:04:42;;;;;;;12.43;5.60;;;26.50;41.40;;;;;;5040566;27;89163;-72
2022/05/12 12:08:00;;;;;;;13.07;4.63;;;26.50;41.40;;;;;;5040830;27;88134;-72
2022/05/12 12:10:39;;;;;;;6.57;3.60;;;26.40;41.30;;;;;;5041039;27;90666;-73
2022/05/12 12:13:31;;;;;;;6.93;3.53;;;26.50;41.20;;;;;;5041076;28;93815;-72
2022/05/12 12:16:02;;;;;;;4.03;2.27;;;26.50;41.20;;;;;;5038289;28;89183;-72
2022/05/12 12:18:58;;;;;;;4.53;2.10;;;26.40;41.10;;;;;;5020498;28;88752;-72
2022/05/12 12:22:20;;;;;;;3.73;1.83;;;26.50;41.20;;;;;;5020440;28;90718;-72
2022/05/12 12:24:57;;;;;;;2.67;1.70;;;26.50;41.10;;;;;;4993953;28;88999;-72
2022/05/12 12:27:47;;;;;;;3.73;1.83;;;26.50;41.00;;;;;;5020077;28;92071;-72
2022/05/12 12:30:40;;;;;;;3.47;1.23;;;26.50;41.00;;;;;;5036936;28;88639;-72
2022/05/12 12:33:19;;;;;;;2.73;0.93;;;26.50;41.00;;;;;;5040551;27;89792;-72
2022/05/12 12:36:06;;;;;;;2.00;1.20;;;26.50;40.80;;;;;;5038994;27;90080;-72
2022/05/12 12:39:05;;;;;;;2.87;1.00;;;26.50;40.70;;;;;;5020743;27;89703;-73
2022/05/12 12:41:39;;;;;;;2.87;1.37;;;26.50;40.70;;;;;;5043151;27;88569;-72
2022/05/12 12:44:12;;;;;;;2.43;1.17;;;26.50;40.50;;;;;;5040140;27;89589;-73
2022/05/12 12:47:00;;;;;;;2.17;0.93;;;26.50;40.50;;;;;;5040071;28;89811;-72
2022/05/12 12:49:30;;;;;;;2.43;0.70;;;26.50;40.50;;;;;;5038058;27;88583;-72
2022/05/12 12:51:59;;;;;;;0.97;0.70;;;26.50;40.40;;;;;;5040026;28;88621;-72
2022/05/12 12:57:26;;;;;;;1.40;0.83;;;26.60;40.30;;;;;;5039238;27;92753;-72
2022/05/12 12:59:56;;;;;;;0.63;0.63;;;26.60;40.30;;;;;;5039775;27;88710;-72
2022/05/12 13:02:30;;;;;;;1.47;0.67;;;26.60;40.20;;;;;;5039945;28;88495;-72
2022/05/12 13:04:59;;;;;;;1.30;0.50;;;26.60;40.10;;;;;;5039190;27;90628;-72
2022/05/12 13:07:28;;;;;;;0.87;0.50;;;26.60;40.00;;;;;;5040030;27;88818;-72
2022/05/12 13:09:57;;;;;;;0.70;0.70;;;26.60;39.90;;;;;;5047334;27;89079;-72
2022/05/12 13:12:27;;;;;;;0.83;0.60;;;26.60;39.90;;;;;;5057992;27;88596;-72
2022/05/12 13:14:56;;;;;;;1.40;0.60;;;26.60;39.80;;;;;;5058265;27;93343;-72
2022/05/12 13:17:25;;;;;;;1.43;0.57;;;26.60;39.70;;;;;;5057930;27;90107;-72
2022/05/12 13:19:57;;;;;;;1.27;0.50;;;26.60;39.70;;;;;;5053881;27;89187;-72
2022/05/12 13:22:26;;;;;;;1.00;0.80;;;26.60;39.70;;;;;;5055823;27;88438;-72
2022/05/12 13:24:54;;;;;;;1.90;0.40;;;26.60;39.70;;;;;;5054715;27;90672;-72
2022/05/12 13:27:23;;;;;;;0.60;0.50;;;26.60;39.60;;;;;;5053920;27;89167;-72
2022/05/12 13:29:53;;;;;;;3.20;0.40;;;26.60;39.60;;;;;;5052185;27;89605;-72